createdAt,value
2022-08-19T00:00:38.606Z,17.23
2022-08-19T00:06:32.796Z,18.73
2022-08-19T00:12:26.199Z,16.00
2022-08-19T00:18:20.918Z,20.90
2022-08-19T00:24:16.409Z,17.43
2022-08-19T00:30:11.936Z,20.73
2022-08-19T00:36:09.620Z,16.13
2022-08-19T00:42:03.317Z,17.67
2022-08-19T00:47:56.708Z,18.63
2022-08-19T00:53:51.469Z,21.17
2022-08-19T00:59:56.373Z,26.60
2022-08-19T01:05:57.510Z,25.80
2022-08-19T01:11:53.274Z,25.93
2022-08-19T01:17:48.120Z,23.80
2022-08-19T01:23:45.796Z,24.60
2022-08-19T01:29:43.002Z,30.03
2022-08-19T01:35:39.577Z,26.07
2022-08-19T01:41:34.375Z,30.80
2022-08-19T01:47:27.785Z,28.67
2022-08-19T01:53:21.240Z,25.40
2022-08-19T01:59:20.463Z,23.57
2022-08-19T02:05:15.179Z,25.63
2022-08-19T02:11:09.126Z,26.37
2022-08-19T02:17:04.083Z,23.50
2022-08-19T02:22:57.383Z,31.87
2022-08-19T02:28:50.414Z,20.27
2022-08-19T02:34:45.302Z,21.77
2022-08-19T02:40:39.195Z,20.20
2022-08-19T02:46:34.518Z,23.90
2022-08-19T02:52:29.173Z,23.17
2022-08-19T02:58:23.637Z,21.77
2022-08-19T03:04:18.683Z,23.17
2022-08-19T03:10:13.055Z,24.30
2022-08-19T03:16:10.679Z,21.20
2022-08-19T03:22:05.739Z,25.30
2022-08-19T03:28:00.453Z,26.70
2022-08-19T03:33:53.830Z,27.50
2022-08-19T03:39:47.287Z,26.87
2022-08-19T03:45:41.759Z,33.10
2022-08-19T03:51:39.547Z,33.07
2022-08-19T03:57:33.702Z,32.07
2022-08-19T04:03:29.103Z,37.90
2022-08-19T04:09:22.479Z,33.23
2022-08-19T04:15:16.379Z,35.80
2022-08-19T04:21:17.567Z,34.43
2022-08-19T04:27:10.512Z,37.33
2022-08-19T04:33:03.458Z,32.53
2022-08-19T04:39:01.061Z,31.40
2022-08-19T04:44:54.012Z,35.10
2022-08-19T04:50:47.843Z,28.27
2022-08-19T04:56:43.056Z,33.70
2022-08-19T05:02:36.420Z,35.50
2022-08-19T05:08:31.347Z,29.70
2022-08-19T05:14:26.071Z,36.60
2022-08-19T05:20:36.703Z,30.23
2022-08-19T05:26:30.390Z,30.97
2022-08-19T05:32:25.686Z,33.70
2022-08-19T05:38:20.341Z,32.20
2022-08-19T05:44:14.854Z,36.27
2022-08-19T05:50:10.428Z,34.97
2022-08-19T05:56:06.987Z,34.40
2022-08-19T06:02:02.007Z,34.63
2022-08-19T06:07:56.397Z,34.80
2022-08-19T06:13:59.382Z,35.67
2022-08-19T06:19:53.348Z,35.10
2022-08-19T06:25:48.138Z,34.03
2022-08-19T06:31:45.994Z,37.53
2022-08-19T06:37:43.339Z,39.00
2022-08-19T06:43:42.261Z,37.03
2022-08-19T06:49:36.552Z,38.73
2022-08-19T06:55:31.098Z,39.37
2022-08-19T07:01:28.556Z,35.30
2022-08-19T07:07:23.976Z,32.70
2022-08-19T07:13:17.464Z,32.13
2022-08-19T07:19:15.573Z,29.77
2022-08-19T07:25:10.910Z,29.57
2022-08-19T07:31:05.997Z,23.83
2022-08-19T07:37:00.869Z,30.47
2022-08-19T07:42:53.818Z,27.33
2022-08-19T07:48:48.019Z,28.93
2022-08-19T07:54:43.151Z,29.00
2022-08-19T08:00:37.293Z,29.03
2022-08-19T08:06:48.151Z,35.90
2022-08-19T08:12:43.107Z,34.37
2022-08-19T08:18:53.173Z,32.43
2022-08-19T08:24:46.774Z,33.20
2022-08-19T08:30:45.316Z,34.73
2022-08-19T08:36:42.606Z,32.03
2022-08-19T08:42:46.116Z,34.53
2022-08-19T08:48:52.722Z,38.90
2022-08-19T08:54:54.657Z,35.33
2022-08-19T09:00:50.938Z,39.30
2022-08-19T09:06:54.454Z,39.27
2022-08-19T09:12:56.488Z,34.03
2022-08-19T09:18:54.106Z,31.73
2022-08-19T09:24:49.494Z,30.00
2022-08-19T09:30:43.991Z,30.53
2022-08-19T09:36:39.874Z,28.23
2022-08-19T09:42:35.294Z,33.10
2022-08-19T09:48:28.981Z,26.37
2022-08-19T09:54:23.721Z,32.60
2022-08-19T10:00:25.975Z,30.77
2022-08-19T10:06:43.262Z,23.77
2022-08-19T10:12:40.438Z,26.53
2022-08-19T10:18:36.539Z,21.80
2022-08-19T10:24:29.972Z,24.20
2022-08-19T10:30:24.967Z,22.27
2022-08-19T10:36:22.767Z,27.67
2022-08-19T10:42:17.157Z,30.67
2022-08-19T10:48:12.210Z,29.40
2022-08-19T10:54:12.521Z,23.40
2022-08-19T11:00:07.425Z,22.83
2022-08-19T11:06:01.816Z,24.67
2022-08-19T11:11:57.812Z,27.43
2022-08-19T11:17:57.297Z,32.00
2022-08-19T11:23:53.128Z,22.40
2022-08-19T11:29:47.942Z,24.23
2022-08-19T11:35:42.060Z,28.43
2022-08-19T11:41:35.465Z,31.17
2022-08-19T11:47:31.874Z,32.27
2022-08-19T11:53:26.275Z,27.63
2022-08-19T11:59:19.658Z,26.27
2022-08-19T12:05:14.440Z,28.47
2022-08-19T12:11:08.828Z,25.73
2022-08-19T12:17:02.981Z,26.67
2022-08-19T12:22:58.163Z,25.40
2022-08-19T12:28:51.784Z,26.07
2022-08-19T12:34:45.922Z,21.43
2022-08-19T12:40:41.356Z,20.93
2022-08-19T12:46:34.281Z,21.27
2022-08-19T12:52:28.571Z,21.20
2022-08-19T12:58:27.205Z,24.20
2022-08-19T13:04:21.255Z,17.70
2022-08-19T13:10:17.775Z,19.37
2022-08-19T13:16:14.180Z,20.70
2022-08-19T13:22:13.082Z,20.30
2022-08-19T13:28:07.934Z,16.70
2022-08-19T13:34:02.702Z,14.33
2022-08-19T13:39:55.761Z,15.33
2022-08-19T13:45:49.363Z,15.77
2022-08-19T13:51:44.846Z,18.73
2022-08-19T13:57:40.269Z,17.40
2022-08-19T14:03:35.354Z,20.27
2022-08-19T14:09:30.066Z,18.87
2022-08-19T14:15:24.480Z,12.77
2022-08-19T14:21:19.383Z,15.03
2022-08-19T14:27:14.070Z,15.60
2022-08-19T14:33:09.616Z,15.37
2022-08-19T14:39:03.105Z,16.63
2022-08-19T14:45:00.100Z,13.30
2022-08-19T14:50:53.153Z,13.67
2022-08-19T14:56:47.103Z,14.17
2022-08-19T15:02:41.980Z,14.17
2022-08-19T15:08:38.232Z,12.40
2022-08-19T15:14:35.633Z,12.30
2022-08-19T15:20:32.043Z,11.90
2022-08-19T15:26:26.095Z,12.90
2022-08-19T15:32:20.244Z,12.43
2022-08-19T15:38:15.259Z,13.47
2022-08-19T15:44:10.332Z,12.53
2022-08-19T15:50:06.844Z,13.50
2022-08-19T15:56:05.594Z,12.30
2022-08-19T16:02:16.631Z,13.73
2022-08-19T16:08:10.622Z,13.33
2022-08-19T16:14:07.542Z,12.53
2022-08-19T16:20:00.975Z,13.30
2022-08-19T16:25:54.321Z,15.03
2022-08-19T16:31:50.150Z,12.73
2022-08-19T16:37:43.477Z,12.37
2022-08-19T16:43:39.282Z,11.13
2022-08-19T16:49:53.590Z,11.53
2022-08-19T16:55:51.240Z,11.63
2022-08-19T17:01:44.687Z,11.77
2022-08-19T17:07:39.375Z,9.93
2022-08-19T17:13:32.707Z,10.10
2022-08-19T17:19:26.015Z,9.10
2022-08-19T17:25:20.412Z,11.30
2022-08-19T17:31:13.843Z,10.17
2022-08-19T17:37:07.027Z,13.13
2022-08-19T17:43:01.806Z,11.03
2022-08-19T17:48:57.282Z,9.87
2022-08-19T17:54:50.344Z,9.50
2022-08-19T18:00:53.248Z,11.37
2022-08-19T18:06:53.225Z,12.03
2022-08-19T18:12:47.216Z,10.43
2022-08-19T18:18:43.720Z,10.87
2022-08-19T18:24:39.546Z,11.43
2022-08-19T18:30:34.519Z,10.50
2022-08-19T18:36:52.438Z,9.40
2022-08-19T18:43:02.074Z,10.73
2022-08-19T18:49:07.945Z,9.20
2022-08-19T18:55:02.809Z,12.13
2022-08-19T19:00:57.360Z,10.57
2022-08-19T19:06:51.583Z,10.63
2022-08-19T19:12:45.939Z,11.27
2022-08-19T19:18:39.346Z,10.93
2022-08-19T19:24:34.679Z,11.43
2022-08-19T19:30:31.106Z,12.40
2022-08-19T19:36:24.510Z,10.40
2022-08-19T19:42:21.696Z,11.27
2022-08-19T19:48:16.867Z,11.83
2022-08-19T19:54:13.948Z,9.80
2022-08-19T20:00:09.557Z,11.17
2022-08-19T20:06:04.261Z,12.67
2022-08-19T20:11:58.922Z,11.60
2022-08-19T20:17:52.400Z,13.40
2022-08-19T20:24:09.410Z,13.47
2022-08-19T20:30:01.870Z,12.03
2022-08-19T20:35:58.665Z,12.13
2022-08-19T20:41:56.745Z,11.60
2022-08-19T20:47:52.220Z,12.43
2022-08-19T20:53:47.953Z,12.97
2022-08-19T20:59:44.744Z,13.00
2022-08-19T21:05:38.522Z,13.87
2022-08-19T21:11:32.669Z,12.20
2022-08-19T21:17:27.365Z,13.80
2022-08-19T21:23:23.578Z,13.53
2022-08-19T21:29:17.971Z,12.23
2022-08-19T21:35:15.365Z,13.63
2022-08-19T21:41:14.219Z,13.07
2022-08-19T21:47:09.102Z,14.17
2022-08-19T21:53:05.911Z,14.67
2022-08-19T21:59:02.520Z,15.77
2022-08-19T22:04:58.924Z,14.80
2022-08-19T22:11:00.242Z,14.73
2022-08-19T22:16:56.390Z,13.03
2022-08-19T22:22:57.330Z,14.80
2022-08-19T22:28:57.615Z,14.57
2022-08-19T22:34:56.013Z,14.70
2022-08-19T22:41:00.470Z,16.47
2022-08-19T22:46:59.981Z,15.30
2022-08-19T22:52:58.173Z,14.60
2022-08-19T22:58:54.750Z,15.33
2022-08-19T23:04:52.883Z,15.73
2022-08-19T23:10:51.212Z,15.60
2022-08-19T23:16:50.938Z,15.70
2022-08-19T23:22:49.501Z,15.70
2022-08-19T23:29:00.451Z,16.77
2022-08-19T23:34:56.569Z,15.80
2022-08-19T23:40:57.676Z,17.67
2022-08-19T23:46:55.624Z,18.90
2022-08-19T23:52:56.293Z,18.83
2022-08-19T23:58:53.698Z,19.30
